sensor_id;sensor_type;location;lat;lon;timestamp;P1;durP1;ratioP1;P2;durP2;ratioP2
18838;SDS011;9548;56.920;14.804;2023-05-10T00:00:42;4.22;;;3.08;;
18838;SDS011;9548;56.920;14.804;2023-05-10T00:03:09;5.10;;;3.08;;
18838;SDS011;9548;56.920;14.804;2023-05-10T00:05:35;9.95;;;3.50;;
18838;SDS011;9548;56.920;14.804;2023-05-10T00:08:02;4.40;;;2.80;;
18838;SDS011;9548;56.920;14.804;2023-05-10T00:10:31;5.25;;;2.58;;
18838;SDS011;9548;56.920;14.804;2023-05-10T00:12:58;4.55;;;3.33;;
18838;SDS011;9548;56.920;14.804;2023-05-10T00:15:25;4.70;;;3.13;;
18838;SDS011;9548;56.920;14.804;2023-05-10T00:17:52;9.10;;;3.45;;
18838;SDS011;9548;56.920;14.804;2023-05-10T00:20:18;5.43;;;3.03;;
18838;SDS011;9548;56.920;14.804;2023-05-10T00:22:45;5.07;;;3.00;;
18838;SDS011;9548;56.920;14.804;2023-05-10T00:25:12;4.88;;;3.03;;
18838;SDS011;9548;56.920;14.804;2023-05-10T00:27:41;5.15;;;3.08;;
18838;SDS011;9548;56.920;14.804;2023-05-10T00:30:08;5.63;;;3.17;;
18838;SDS011;9548;56.920;14.804;2023-05-10T00:32:36;6.93;;;2.88;;
18838;SDS011;9548;56.920;14.804;2023-05-10T00:35:03;4.20;;;3.03;;
18838;SDS011;9548;56.920;14.804;2023-05-10T00:37:30;3.88;;;2.83;;
18838;SDS011;9548;56.920;14.804;2023-05-10T00:39:57;5.63;;;3.25;;
18838;SDS011;9548;56.920;14.804;2023-05-10T00:42:24;4.88;;;3.20;;
18838;SDS011;9548;56.920;14.804;2023-05-10T00:44:52;5.25;;;3.42;;
18838;SDS011;9548;56.920;14.804;2023-05-10T00:47:19;4.70;;;3.03;;
18838;SDS011;9548;56.920;14.804;2023-05-10T00:49:47;5.72;;;3.28;;
18838;SDS011;9548;56.920;14.804;2023-05-10T00:52:14;6.45;;;3.05;;
18838;SDS011;9548;56.920;14.804;2023-05-10T00:54:41;6.10;;;3.22;;
18838;SDS011;9548;56.920;14.804;2023-05-10T00:57:08;7.38;;;3.72;;
18838;SDS011;9548;56.920;14.804;2023-05-10T00:59:35;5.45;;;3.30;;
18838;SDS011;9548;56.920;14.804;2023-05-10T01:02:03;6.38;;;3.45;;
18838;SDS011;9548;56.920;14.804;2023-05-10T01:04:31;8.52;;;3.10;;
18838;SDS011;9548;56.920;14.804;2023-05-10T01:06:58;4.78;;;3.25;;
18838;SDS011;9548;56.920;14.804;2023-05-10T01:09:26;9.57;;;3.30;;
18838;SDS011;9548;56.920;14.804;2023-05-10T01:11:53;6.00;;;3.17;;
18838;SDS011;9548;56.920;14.804;2023-05-10T01:14:21;6.55;;;2.97;;
18838;SDS011;9548;56.920;14.804;2023-05-10T01:16:48;5.43;;;3.00;;
18838;SDS011;9548;56.920;14.804;2023-05-10T01:19:18;6.40;;;3.40;;
18838;SDS011;9548;56.920;14.804;2023-05-10T01:21:49;15.05;;;3.20;;
18838;SDS011;9548;56.920;14.804;2023-05-10T01:24:38;4.28;;;2.97;;
18838;SDS011;9548;56.920;14.804;2023-05-10T01:27:25;5.95;;;2.90;;
18838;SDS011;9548;56.920;14.804;2023-05-10T01:30:20;10.68;;;3.63;;
18838;SDS011;9548;56.920;14.804;2023-05-10T01:33:12;4.97;;;3.17;;
18838;SDS011;9548;56.920;14.804;2023-05-10T01:35:46;7.95;;;2.92;;
18838;SDS011;9548;56.920;14.804;2023-05-10T01:38:19;5.40;;;3.05;;
18838;SDS011;9548;56.920;14.804;2023-05-10T01:40:56;6.97;;;3.38;;
18838;SDS011;9548;56.920;14.804;2023-05-10T01:43:32;5.10;;;3.00;;
18838;SDS011;9548;56.920;14.804;2023-05-10T01:46:07;10.63;;;3.42;;
18838;SDS011;9548;56.920;14.804;2023-05-10T01:48:38;9.52;;;3.20;;
18838;SDS011;9548;56.920;14.804;2023-05-10T01:51:11;6.55;;;3.45;;
18838;SDS011;9548;56.920;14.804;2023-05-10T01:53:39;7.65;;;3.40;;
18838;SDS011;9548;56.920;14.804;2023-05-10T01:56:08;4.57;;;3.25;;
18838;SDS011;9548;56.920;14.804;2023-05-10T01:58:36;6.28;;;3.13;;
18838;SDS011;9548;56.920;14.804;2023-05-10T02:01:07;5.15;;;2.85;;
18838;SDS011;9548;56.920;14.804;2023-05-10T02:03:35;4.63;;;3.10;;
18838;SDS011;9548;56.920;14.804;2023-05-10T02:06:05;6.30;;;3.33;;
18838;SDS011;9548;56.920;14.804;2023-05-10T02:08:33;3.95;;;2.80;;
18838;SDS011;9548;56.920;14.804;2023-05-10T02:11:01;7.97;;;3.08;;
18838;SDS011;9548;56.920;14.804;2023-05-10T02:13:30;8.25;;;3.00;;
18838;SDS011;9548;56.920;14.804;2023-05-10T02:16:00;11.07;;;3.55;;
18838;SDS011;9548;56.920;14.804;2023-05-10T02:18:29;6.10;;;3.00;;
18838;SDS011;9548;56.920;14.804;2023-05-10T02:20:59;7.20;;;3.63;;
18838;SDS011;9548;56.920;14.804;2023-05-10T02:23:27;6.75;;;3.10;;
18838;SDS011;9548;56.920;14.804;2023-05-10T02:25:55;7.85;;;3.17;;
18838;SDS011;9548;56.920;14.804;2023-05-10T02:28:23;6.50;;;2.78;;
18838;SDS011;9548;56.920;14.804;2023-05-10T02:30:51;6.32;;;2.78;;
18838;SDS011;9548;56.920;14.804;2023-05-10T02:33:19;8.43;;;3.10;;
18838;SDS011;9548;56.920;14.804;2023-05-10T02:35:47;6.10;;;2.75;;
18838;SDS011;9548;56.920;14.804;2023-05-10T02:38:16;6.60;;;2.97;;
18838;SDS011;9548;56.920;14.804;2023-05-10T02:40:46;4.90;;;3.00;;
18838;SDS011;9548;56.920;14.804;2023-05-10T02:43:14;5.72;;;3.17;;
18838;SDS011;9548;56.920;14.804;2023-05-10T02:45:43;8.07;;;3.00;;
18838;SDS011;9548;56.920;14.804;2023-05-10T02:48:14;7.35;;;3.00;;
18838;SDS011;9548;56.920;14.804;2023-05-10T02:50:42;8.20;;;3.17;;
18838;SDS011;9548;56.920;14.804;2023-05-10T02:53:13;9.35;;;3.30;;
18838;SDS011;9548;56.920;14.804;2023-05-10T02:55:48;11.65;;;3.20;;
18838;SDS011;9548;56.920;14.804;2023-05-10T02:58:17;18.23;;;3.05;;
18838;SDS011;9548;56.920;14.804;2023-05-10T03:00:45;10.93;;;3.17;;
18838;SDS011;9548;56.920;14.804;2023-05-10T03:03:12;7.65;;;2.90;;
18838;SDS011;9548;56.920;14.804;2023-05-10T03:05:39;14.30;;;3.38;;
18838;SDS011;9548;56.920;14.804;2023-05-10T03:08:06;23.58;;;3.45;;
18838;SDS011;9548;56.920;14.804;2023-05-10T03:10:38;16.85;;;3.17;;
18838;SDS011;9548;56.920;14.804;2023-05-10T03:13:16;13.90;;;2.92;;
18838;SDS011;9548;56.920;14.804;2023-05-10T03:16:01;8.30;;;3.10;;
18838;SDS011;9548;56.920;14.804;2023-05-10T03:18:36;10.52;;;3.15;;
18838;SDS011;9548;56.920;14.804;2023-05-10T03:21:10;15.10;;;3.30;;
18838;SDS011;9548;56.920;14.804;2023-05-10T03:23:40;8.45;;;3.05;;
18838;SDS011;9548;56.920;14.804;2023-05-10T03:26:10;4.15;;;2.85;;
18838;SDS011;9548;56.920;14.804;2023-05-10T03:28:43;11.65;;;3.17;;
18838;SDS011;9548;56.920;14.804;2023-05-10T03:31:11;8.48;;;2.55;;
18838;SDS011;9548;56.920;14.804;2023-05-10T03:33:45;4.00;;;2.92;;
18838;SDS011;9548;56.920;14.804;2023-05-10T03:36:13;3.65;;;2.72;;
18838;SDS011;9548;56.920;14.804;2023-05-10T03:38:39;8.02;;;2.80;;
18838;SDS011;9548;56.920;14.804;2023-05-10T03:41:06;5.90;;;3.20;;
18838;SDS011;9548;56.920;14.804;2023-05-10T03:43:35;6.47;;;3.08;;
18838;SDS011;9548;56.920;14.804;2023-05-10T03:46:02;5.20;;;2.75;;
18838;SDS011;9548;56.920;14.804;2023-05-10T03:48:29;6.03;;;2.90;;
18838;SDS011;9548;56.920;14.804;2023-05-10T03:50:56;6.35;;;2.78;;
18838;SDS011;9548;56.920;14.804;2023-05-10T03:53:23;6.65;;;3.05;;
18838;SDS011;9548;56.920;14.804;2023-05-10T03:55:50;8.25;;;3.40;;
18838;SDS011;9548;56.920;14.804;2023-05-10T03:58:17;7.57;;;3.15;;
18838;SDS011;9548;56.920;14.804;2023-05-10T04:00:45;10.02;;;3.22;;
18838;SDS011;9548;56.920;14.804;2023-05-10T04:03:12;6.82;;;3.90;;
18838;SDS011;9548;56.920;14.804;2023-05-10T04:05:39;9.80;;;2.80;;
18838;SDS011;9548;56.920;14.804;2023-05-10T04:08:06;4.63;;;2.80;;
18838;SDS011;9548;56.920;14.804;2023-05-10T04:10:33;4.55;;;2.80;;
18838;SDS011;9548;56.920;14.804;2023-05-10T04:13:00;4.15;;;2.63;;
18838;SDS011;9548;56.920;14.804;2023-05-10T04:15:27;6.05;;;2.83;;
18838;SDS011;9548;56.920;14.804;2023-05-10T04:17:55;9.02;;;2.50;;
18838;SDS011;9548;56.920;14.804;2023-05-10T04:20:22;7.88;;;2.92;;
18838;SDS011;9548;56.920;14.804;2023-05-10T04:22:49;4.97;;;3.10;;
18838;SDS011;9548;56.920;14.804;2023-05-10T04:25:16;4.78;;;2.60;;
18838;SDS011;9548;56.920;14.804;2023-05-10T04:27:43;7.28;;;2.50;;
18838;SDS011;9548;56.920;14.804;2023-05-10T04:30:10;7.03;;;2.90;;
18838;SDS011;9548;56.920;14.804;2023-05-10T04:32:37;5.05;;;2.85;;
18838;SDS011;9548;56.920;14.804;2023-05-10T04:35:06;4.95;;;2.28;;
18838;SDS011;9548;56.920;14.804;2023-05-10T04:37:34;4.15;;;2.60;;
18838;SDS011;9548;56.920;14.804;2023-05-10T04:40:01;4.53;;;3.00;;
18838;SDS011;9548;56.920;14.804;2023-05-10T04:42:29;5.68;;;3.08;;
18838;SDS011;9548;56.920;14.804;2023-05-10T04:44:56;8.80;;;2.85;;
18838;SDS011;9548;56.920;14.804;2023-05-10T04:47:24;5.93;;;3.00;;
18838;SDS011;9548;56.920;14.804;2023-05-10T04:49:51;10.13;;;2.47;;
18838;SDS011;9548;56.920;14.804;2023-05-10T04:52:19;6.72;;;2.45;;
18838;SDS011;9548;56.920;14.804;2023-05-10T04:54:46;10.13;;;2.53;;
18838;SDS011;9548;56.920;14.804;2023-05-10T04:57:13;5.60;;;2.33;;
18838;SDS011;9548;56.920;14.804;2023-05-10T04:59:40;4.10;;;2.50;;
18838;SDS011;9548;56.920;14.804;2023-05-10T05:02:07;6.38;;;2.63;;
18838;SDS011;9548;56.920;14.804;2023-05-10T05:04:34;7.78;;;2.58;;
18838;SDS011;9548;56.920;14.804;2023-05-10T05:07:01;5.00;;;2.78;;
18838;SDS011;9548;56.920;14.804;2023-05-10T05:09:29;6.60;;;2.60;;
18838;SDS011;9548;56.920;14.804;2023-05-10T05:11:57;6.22;;;2.70;;
18838;SDS011;9548;56.920;14.804;2023-05-10T05:14:24;5.07;;;2.50;;
18838;SDS011;9548;56.920;14.804;2023-05-10T05:16:51;8.93;;;2.42;;
18838;SDS011;9548;56.920;14.804;2023-05-10T05:19:18;4.90;;;2.50;;
18838;SDS011;9548;56.920;14.804;2023-05-10T05:21:45;5.20;;;2.70;;
18838;SDS011;9548;56.920;14.804;2023-05-10T05:24:12;4.35;;;2.72;;
18838;SDS011;9548;56.920;14.804;2023-05-10T05:26:40;4.78;;;2.67;;
18838;SDS011;9548;56.920;14.804;2023-05-10T05:29:07;17.20;;;2.85;;
18838;SDS011;9548;56.920;14.804;2023-05-10T05:31:34;5.20;;;2.70;;
18838;SDS011;9548;56.920;14.804;2023-05-10T05:34:01;6.20;;;2.53;;
18838;SDS011;9548;56.920;14.804;2023-05-10T05:36:28;4.10;;;2.30;;
18838;SDS011;9548;56.920;14.804;2023-05-10T05:38:55;6.22;;;2.40;;
18838;SDS011;9548;56.920;14.804;2023-05-10T05:41:22;7.55;;;2.58;;
18838;SDS011;9548;56.920;14.804;2023-05-10T05:43:51;5.00;;;2.70;;
18838;SDS011;9548;56.920;14.804;2023-05-10T05:46:18;3.53;;;2.17;;
18838;SDS011;9548;56.920;14.804;2023-05-10T05:48:45;10.85;;;2.75;;
18838;SDS011;9548;56.920;14.804;2023-05-10T05:51:11;3.80;;;2.22;;
18838;SDS011;9548;56.920;14.804;2023-05-10T05:53:39;7.68;;;2.20;;
18838;SDS011;9548;56.920;14.804;2023-05-10T05:56:06;11.20;;;2.55;;
18838;SDS011;9548;56.920;14.804;2023-05-10T05:58:33;7.95;;;2.72;;
18838;SDS011;9548;56.920;14.804;2023-05-10T06:01:01;3.95;;;2.22;;
18838;SDS011;9548;56.920;14.804;2023-05-10T06:03:28;6.20;;;2.72;;
18838;SDS011;9548;56.920;14.804;2023-05-10T06:05:55;4.15;;;2.30;;
18838;SDS011;9548;56.920;14.804;2023-05-10T06:08:22;6.55;;;2.35;;
18838;SDS011;9548;56.920;14.804;2023-05-10T06:10:49;6.55;;;2.10;;
18838;SDS011;9548;56.920;14.804;2023-05-10T06:13:15;4.90;;;2.35;;
18838;SDS011;9548;56.920;14.804;2023-05-10T06:15:43;6.35;;;2.20;;
18838;SDS011;9548;56.920;14.804;2023-05-10T06:18:11;4.13;;;2.28;;
18838;SDS011;9548;56.920;14.804;2023-05-10T06:20:38;6.45;;;2.38;;
18838;SDS011;9548;56.920;14.804;2023-05-10T06:23:07;4.75;;;2.35;;
18838;SDS011;9548;56.920;14.804;2023-05-10T06:25:34;5.47;;;2.20;;
18838;SDS011;9548;56.920;14.804;2023-05-10T06:28:01;2.63;;;1.92;;
18838;SDS011;9548;56.920;14.804;2023-05-10T06:30:27;4.25;;;2.70;;
18838;SDS011;9548;56.920;14.804;2023-05-10T06:32:54;4.38;;;2.13;;
18838;SDS011;9548;56.920;14.804;2023-05-10T06:35:23;5.93;;;2.10;;
18838;SDS011;9548;56.920;14.804;2023-05-10T06:37:50;2.83;;;2.00;;
18838;SDS011;9548;56.920;14.804;2023-05-10T06:40:17;9.10;;;2.25;;
18838;SDS011;9548;56.920;14.804;2023-05-10T06:42:44;6.40;;;2.05;;
18838;SDS011;9548;56.920;14.804;2023-05-10T06:45:11;2.65;;;2.13;;
18838;SDS011;9548;56.920;14.804;2023-05-10T06:47:39;3.60;;;2.00;;
18838;SDS011;9548;56.920;14.804;2023-05-10T06:50:06;4.57;;;1.88;;
18838;SDS011;9548;56.920;14.804;2023-05-10T06:52:35;6.20;;;1.65;;
18838;SDS011;9548;56.920;14.804;2023-05-10T06:55:02;11.10;;;2.30;;
18838;SDS011;9548;56.920;14.804;2023-05-10T06:57:29;3.90;;;1.95;;
18838;SDS011;9548;56.920;14.804;2023-05-10T06:59:56;5.90;;;2.13;;
18838;SDS011;9548;56.920;14.804;2023-05-10T07:02:24;2.45;;;2.05;;
18838;SDS011;9548;56.920;14.804;2023-05-10T07:04:51;3.22;;;2.15;;
18838;SDS011;9548;56.920;14.804;2023-05-10T07:07:19;3.00;;;1.90;;
18838;SDS011;9548;56.920;14.804;2023-05-10T07:09:47;3.90;;;1.90;;
18838;SDS011;9548;56.920;14.804;2023-05-10T07:12:14;3.63;;;1.77;;
18838;SDS011;9548;56.920;14.804;2023-05-10T07:14:41;7.53;;;1.90;;
18838;SDS011;9548;56.920;14.804;2023-05-10T07:17:09;5.43;;;2.20;;
18838;SDS011;9548;56.920;14.804;2023-05-10T07:19:36;8.68;;;1.88;;
18838;SDS011;9548;56.920;14.804;2023-05-10T07:22:03;7.10;;;1.77;;
18838;SDS011;9548;56.920;14.804;2023-05-10T07:24:29;10.88;;;2.25;;
18838;SDS011;9548;56.920;14.804;2023-05-10T07:26:58;7.20;;;1.70;;
18838;SDS011;9548;56.920;14.804;2023-05-10T07:29:26;3.53;;;1.90;;
18838;SDS011;9548;56.920;14.804;2023-05-10T07:31:53;6.57;;;1.63;;
18838;SDS011;9548;56.920;14.804;2023-05-10T07:34:20;4.32;;;1.92;;
18838;SDS011;9548;56.920;14.804;2023-05-10T07:36:47;16.23;;;2.13;;
18838;SDS011;9548;56.920;14.804;2023-05-10T07:39:14;5.03;;;2.10;;
18838;SDS011;9548;56.920;14.804;2023-05-10T07:41:41;9.10;;;1.92;;
18838;SDS011;9548;56.920;14.804;2023-05-10T07:44:10;12.40;;;2.20;;
18838;SDS011;9548;56.920;14.804;2023-05-10T07:46:37;4.47;;;1.75;;
18838;SDS011;9548;56.920;14.804;2023-05-10T07:49:04;5.95;;;1.80;;
18838;SDS011;9548;56.920;14.804;2023-05-10T07:51:31;4.47;;;2.08;;
18838;SDS011;9548;56.920;14.804;2023-05-10T07:53:58;5.72;;;1.80;;
18838;SDS011;9548;56.920;14.804;2023-05-10T07:56:25;9.45;;;1.75;;
18838;SDS011;9548;56.920;14.804;2023-05-10T07:58:54;3.28;;;1.58;;
18838;SDS011;9548;56.920;14.804;2023-05-10T08:01:23;5.53;;;1.73;;
18838;SDS011;9548;56.920;14.804;2023-05-10T08:03:50;6.10;;;1.95;;
18838;SDS011;9548;56.920;14.804;2023-05-10T08:06:18;2.25;;;1.42;;
18838;SDS011;9548;56.920;14.804;2023-05-10T08:08:46;4.32;;;1.70;;
18838;SDS011;9548;56.920;14.804;2023-05-10T08:11:15;5.22;;;1.60;;
18838;SDS011;9548;56.920;14.804;2023-05-10T08:13:42;3.63;;;1.80;;
18838;SDS011;9548;56.920;14.804;2023-05-10T08:16:09;5.05;;;1.55;;
18838;SDS011;9548;56.920;14.804;2023-05-10T08:18:37;2.45;;;1.58;;
18838;SDS011;9548;56.920;14.804;2023-05-10T08:21:05;5.88;;;1.63;;
18838;SDS011;9548;56.920;14.804;2023-05-10T08:23:32;2.60;;;1.80;;
18838;SDS011;9548;56.920;14.804;2023-05-10T08:25:59;2.55;;;1.65;;
18838;SDS011;9548;56.920;14.804;2023-05-10T08:28:26;2.33;;;1.60;;
18838;SDS011;9548;56.920;14.804;2023-05-10T08:30:53;6.75;;;1.67;;
18838;SDS011;9548;56.920;14.804;2023-05-10T08:33:20;9.32;;;1.70;;
18838;SDS011;9548;56.920;14.804;2023-05-10T08:35:48;4.25;;;1.75;;
18838;SDS011;9548;56.920;14.804;2023-05-10T08:38:15;2.42;;;1.35;;
18838;SDS011;9548;56.920;14.804;2023-05-10T08:40:43;3.10;;;2.08;;
18838;SDS011;9548;56.920;14.804;2023-05-10T08:43:11;9.32;;;1.73;;
18838;SDS011;9548;56.920;14.804;2023-05-10T08:45:40;5.38;;;1.70;;
18838;SDS011;9548;56.920;14.804;2023-05-10T08:48:08;3.58;;;1.63;;
18838;SDS011;9548;56.920;14.804;2023-05-10T08:50:36;6.93;;;1.75;;
18838;SDS011;9548;56.920;14.804;2023-05-10T08:53:06;3.75;;;1.65;;
18838;SDS011;9548;56.920;14.804;2023-05-10T08:55:36;6.32;;;1.70;;
18838;SDS011;9548;56.920;14.804;2023-05-10T08:58:04;3.55;;;1.73;;
18838;SDS011;9548;56.920;14.804;2023-05-10T09:00:31;9.18;;;2.25;;
18838;SDS011;9548;56.920;14.804;2023-05-10T09:02:59;3.90;;;1.48;;
18838;SDS011;9548;56.920;14.804;2023-05-10T09:05:27;3.63;;;1.52;;
18838;SDS011;9548;56.920;14.804;2023-05-10T09:07:54;6.78;;;1.33;;
18838;SDS011;9548;56.920;14.804;2023-05-10T09:10:22;4.32;;;1.88;;
18838;SDS011;9548;56.920;14.804;2023-05-10T09:12:52;7.88;;;1.60;;
18838;SDS011;9548;56.920;14.804;2023-05-10T09:15:22;4.75;;;1.95;;
18838;SDS011;9548;56.920;14.804;2023-05-10T09:17:49;2.15;;;1.50;;
18838;SDS011;9548;56.920;14.804;2023-05-10T09:20:16;9.02;;;2.45;;
18838;SDS011;9548;56.920;14.804;2023-05-10T09:22:43;9.55;;;2.03;;
18838;SDS011;9548;56.920;14.804;2023-05-10T09:25:11;12.88;;;1.75;;
18838;SDS011;9548;56.920;14.804;2023-05-10T09:27:41;4.13;;;1.40;;
18838;SDS011;9548;56.920;14.804;2023-05-10T09:30:10;3.72;;;1.50;;
18838;SDS011;9548;56.920;14.804;2023-05-10T09:32:42;4.18;;;1.55;;
18838;SDS011;9548;56.920;14.804;2023-05-10T09:35:10;6.95;;;1.80;;
18838;SDS011;9548;56.920;14.804;2023-05-10T09:37:38;6.95;;;1.38;;
18838;SDS011;9548;56.920;14.804;2023-05-10T09:40:07;3.70;;;1.50;;
18838;SDS011;9548;56.920;14.804;2023-05-10T09:42:37;2.95;;;1.30;;
18838;SDS011;9548;56.920;14.804;2023-05-10T09:45:06;6.20;;;1.40;;
18838;SDS011;9548;56.920;14.804;2023-05-10T09:47:34;4.53;;;1.75;;
18838;SDS011;9548;56.920;14.804;2023-05-10T09:50:02;8.10;;;1.92;;
18838;SDS011;9548;56.920;14.804;2023-05-10T09:52:30;2.95;;;1.60;;
18838;SDS011;9548;56.920;14.804;2023-05-10T09:55:11;2.13;;;1.65;;
18838;SDS011;9548;56.920;14.804;2023-05-10T09:57:38;4.53;;;1.40;;
18838;SDS011;9548;56.920;14.804;2023-05-10T10:00:08;3.20;;;1.58;;
18838;SDS011;9548;56.920;14.804;2023-05-10T10:02:36;4.97;;;1.48;;
18838;SDS011;9548;56.920;14.804;2023-05-10T10:05:03;6.40;;;1.83;;
18838;SDS011;9548;56.920;14.804;2023-05-10T10:07:32;5.03;;;1.80;;
18838;SDS011;9548;56.920;14.804;2023-05-10T10:10:00;5.30;;;1.63;;
18838;SDS011;9548;56.920;14.804;2023-05-10T10:12:27;6.45;;;1.65;;
18838;SDS011;9548;56.920;14.804;2023-05-10T10:14:54;5.60;;;1.70;;
18838;SDS011;9548;56.920;14.804;2023-05-10T10:17:23;1.92;;;1.48;;
18838;SDS011;9548;56.920;14.804;2023-05-10T10:19:53;5.25;;;1.73;;
18838;SDS011;9548;56.920;14.804;2023-05-10T10:22:21;5.00;;;1.23;;
18838;SDS011;9548;56.920;14.804;2023-05-10T10:24:49;7.45;;;1.58;;
18838;SDS011;9548;56.920;14.804;2023-05-10T10:27:19;4.72;;;1.58;;
18838;SDS011;9548;56.920;14.804;2023-05-10T10:29:58;7.70;;;1.63;;
18838;SDS011;9548;56.920;14.804;2023-05-10T10:32:33;3.53;;;1.38;;
18838;SDS011;9548;56.920;14.804;2023-05-10T10:35:08;4.00;;;1.58;;
18838;SDS011;9548;56.920;14.804;2023-05-10T10:37:45;5.03;;;1.45;;
18838;SDS011;9548;56.920;14.804;2023-05-10T10:40:22;4.13;;;1.90;;
18838;SDS011;9548;56.920;14.804;2023-05-10T10:42:51;5.40;;;1.58;;
18838;SDS011;9548;56.920;14.804;2023-05-10T10:45:19;5.38;;;1.55;;
18838;SDS011;9548;56.920;14.804;2023-05-10T10:47:48;2.20;;;1.70;;
18838;SDS011;9548;56.920;14.804;2023-05-10T10:50:19;5.60;;;1.60;;
18838;SDS011;9548;56.920;14.804;2023-05-10T10:52:46;3.65;;;1.40;;
18838;SDS011;9548;56.920;14.804;2023-05-10T10:55:15;3.40;;;1.50;;
18838;SDS011;9548;56.920;14.804;2023-05-10T10:57:45;8.93;;;1.63;;
18838;SDS011;9548;56.920;14.804;2023-05-10T11:00:23;6.25;;;1.70;;
18838;SDS011;9548;56.920;14.804;2023-05-10T11:02:54;3.30;;;1.40;;
18838;SDS011;9548;56.920;14.804;2023-05-10T11:08:09;3.53;;;1.30;;
18838;SDS011;9548;56.920;14.804;2023-05-10T11:10:38;2.13;;;1.50;;
18838;SDS011;9548;56.920;14.804;2023-05-10T11:13:06;2.13;;;1.52;;
18838;SDS011;9548;56.920;14.804;2023-05-10T11:15:35;4.65;;;1.45;;
18838;SDS011;9548;56.920;14.804;2023-05-10T11:20:56;4.07;;;1.50;;
18838;SDS011;9548;56.920;14.804;2023-05-10T11:23:29;5.82;;;1.40;;
18838;SDS011;9548;56.920;14.804;2023-05-10T11:25:56;4.10;;;1.50;;
18838;SDS011;9548;56.920;14.804;2023-05-10T11:28:23;11.65;;;1.83;;
18838;SDS011;9548;56.920;14.804;2023-05-10T11:30:52;5.15;;;1.60;;
18838;SDS011;9548;56.920;14.804;2023-05-10T11:33:19;8.57;;;1.45;;
18838;SDS011;9548;56.920;14.804;2023-05-10T11:35:47;5.60;;;1.58;;
18838;SDS011;9548;56.920;14.804;2023-05-10T11:38:14;3.78;;;1.40;;
18838;SDS011;9548;56.920;14.804;2023-05-10T11:40:41;1.20;;;1.10;;
18838;SDS011;9548;56.920;14.804;2023-05-10T11:43:09;5.90;;;1.52;;
18838;SDS011;9548;56.920;14.804;2023-05-10T11:45:37;5.82;;;1.50;;
18838;SDS011;9548;56.920;14.804;2023-05-10T11:48:04;2.67;;;1.30;;
18838;SDS011;9548;56.920;14.804;2023-05-10T11:50:31;4.95;;;1.20;;
18838;SDS011;9548;56.920;14.804;2023-05-10T11:53:00;6.13;;;1.40;;
18838;SDS011;9548;56.920;14.804;2023-05-10T11:55:27;3.38;;;1.50;;
18838;SDS011;9548;56.920;14.804;2023-05-10T11:57:55;5.45;;;1.60;;
18838;SDS011;9548;56.920;14.804;2023-05-10T12:00:27;4.03;;;1.50;;
18838;SDS011;9548;56.920;14.804;2023-05-10T12:02:54;6.63;;;1.30;;
18838;SDS011;9548;56.920;14.804;2023-05-10T12:05:22;5.82;;;1.33;;
18838;SDS011;9548;56.920;14.804;2023-05-10T12:07:49;3.42;;;1.80;;
18838;SDS011;9548;56.920;14.804;2023-05-10T12:10:17;1.50;;;1.40;;
18838;SDS011;9548;56.920;14.804;2023-05-10T12:12:52;5.22;;;1.30;;
18838;SDS011;9548;56.920;14.804;2023-05-10T12:15:20;3.15;;;1.40;;
18838;SDS011;9548;56.920;14.804;2023-05-10T12:17:50;5.10;;;1.30;;
18838;SDS011;9548;56.920;14.804;2023-05-10T12:20:18;2.30;;;1.45;;
18838;SDS011;9548;56.920;14.804;2023-05-10T12:22:47;4.18;;;1.50;;
18838;SDS011;9548;56.920;14.804;2023-05-10T12:25:16;4.47;;;1.50;;
18838;SDS011;9548;56.920;14.804;2023-05-10T12:27:48;2.38;;;1.30;;
18838;SDS011;9548;56.920;14.804;2023-05-10T12:30:20;5.30;;;1.40;;
18838;SDS011;9548;56.920;14.804;2023-05-10T12:32:48;5.00;;;1.50;;
18838;SDS011;9548;56.920;14.804;2023-05-10T12:35:15;5.60;;;1.48;;
18838;SDS011;9548;56.920;14.804;2023-05-10T12:37:46;4.22;;;1.25;;
18838;SDS011;9548;56.920;14.804;2023-05-10T12:40:12;3.90;;;1.45;;
18838;SDS011;9548;56.920;14.804;2023-05-10T12:42:41;2.40;;;1.13;;
18838;SDS011;9548;56.920;14.804;2023-05-10T12:45:10;3.58;;;1.50;;
18838;SDS011;9548;56.920;14.804;2023-05-10T12:47:37;1.77;;;1.23;;
18838;SDS011;9548;56.920;14.804;2023-05-10T12:50:05;3.30;;;1.52;;
18838;SDS011;9548;56.920;14.804;2023-05-10T12:52:32;6.93;;;1.55;;
18838;SDS011;9548;56.920;14.804;2023-05-10T12:54:59;6.47;;;1.58;;
18838;SDS011;9548;56.920;14.804;2023-05-10T12:57:27;3.03;;;1.42;;
18838;SDS011;9548;56.920;14.804;2023-05-10T12:59:55;8.27;;;1.30;;
18838;SDS011;9548;56.920;14.804;2023-05-10T13:02:22;2.42;;;1.45;;
18838;SDS011;9548;56.920;14.804;2023-05-10T13:04:49;4.07;;;1.60;;
18838;SDS011;9548;56.920;14.804;2023-05-10T13:07:17;5.30;;;1.50;;
18838;SDS011;9548;56.920;14.804;2023-05-10T13:09:44;2.60;;;1.60;;
18838;SDS011;9548;56.920;14.804;2023-05-10T13:12:10;6.43;;;1.95;;
18838;SDS011;9548;56.920;14.804;2023-05-10T13:14:37;3.63;;;1.25;;
18838;SDS011;9548;56.920;14.804;2023-05-10T13:17:07;3.70;;;1.55;;
18838;SDS011;9548;56.920;14.804;2023-05-10T13:19:34;3.50;;;1.40;;
18838;SDS011;9548;56.920;14.804;2023-05-10T13:22:01;8.50;;;1.38;;
18838;SDS011;9548;56.920;14.804;2023-05-10T13:24:28;7.68;;;1.70;;
18838;SDS011;9548;56.920;14.804;2023-05-10T13:26:55;6.10;;;1.70;;
18838;SDS011;9548;56.920;14.804;2023-05-10T13:29:22;2.22;;;1.23;;
18838;SDS011;9548;56.920;14.804;2023-05-10T13:31:49;3.35;;;1.50;;
18838;SDS011;9548;56.920;14.804;2023-05-10T13:34:17;2.90;;;1.52;;
18838;SDS011;9548;56.920;14.804;2023-05-10T13:36:46;5.55;;;1.50;;
18838;SDS011;9548;56.920;14.804;2023-05-10T13:39:14;5.13;;;1.60;;
18838;SDS011;9548;56.920;14.804;2023-05-10T13:41:41;2.70;;;1.60;;
18838;SDS011;9548;56.920;14.804;2023-05-10T13:44:07;6.03;;;1.70;;
18838;SDS011;9548;56.920;14.804;2023-05-10T13:46:34;3.15;;;1.65;;
18838;SDS011;9548;56.920;14.804;2023-05-10T13:49:02;5.63;;;1.38;;
18838;SDS011;9548;56.920;14.804;2023-05-10T13:51:31;6.25;;;1.63;;
18838;SDS011;9548;56.920;14.804;2023-05-10T13:53:58;3.63;;;1.70;;
18838;SDS011;9548;56.920;14.804;2023-05-10T13:56:25;10.30;;;1.67;;
18838;SDS011;9548;56.920;14.804;2023-05-10T13:58:52;3.25;;;1.63;;
18838;SDS011;9548;56.920;14.804;2023-05-10T14:01:19;5.93;;;1.50;;
18838;SDS011;9548;56.920;14.804;2023-05-10T14:03:46;8.98;;;1.77;;
18838;SDS011;9548;56.920;14.804;2023-05-10T14:06:13;2.97;;;1.90;;
18838;SDS011;9548;56.920;14.804;2023-05-10T14:08:41;5.93;;;1.73;;
18838;SDS011;9548;56.920;14.804;2023-05-10T14:11:08;2.88;;;1.60;;
18838;SDS011;9548;56.920;14.804;2023-05-10T14:13:35;3.20;;;1.40;;
18838;SDS011;9548;56.920;14.804;2023-05-10T14:16:02;2.63;;;1.60;;
18838;SDS011;9548;56.920;14.804;2023-05-10T14:18:29;4.82;;;1.77;;
18838;SDS011;9548;56.920;14.804;2023-05-10T14:20:56;3.13;;;1.58;;
18838;SDS011;9548;56.920;14.804;2023-05-10T14:23:23;7.65;;;1.88;;
18838;SDS011;9548;56.920;14.804;2023-05-10T14:25:52;6.18;;;1.73;;
18838;SDS011;9548;56.920;14.804;2023-05-10T14:28:19;3.25;;;1.50;;
18838;SDS011;9548;56.920;14.804;2023-05-10T14:30:47;5.75;;;1.50;;
18838;SDS011;9548;56.920;14.804;2023-05-10T14:33:14;8.25;;;1.50;;
18838;SDS011;9548;56.920;14.804;2023-05-10T14:35:42;5.20;;;2.10;;
18838;SDS011;9548;56.920;14.804;2023-05-10T14:38:10;5.00;;;1.63;;
18838;SDS011;9548;56.920;14.804;2023-05-10T14:40:37;4.22;;;1.63;;
18838;SDS011;9548;56.920;14.804;2023-05-10T14:43:06;3.92;;;2.00;;
18838;SDS011;9548;56.920;14.804;2023-05-10T14:45:32;4.72;;;2.05;;
18838;SDS011;9548;56.920;14.804;2023-05-10T14:47:59;4.63;;;1.77;;
18838;SDS011;9548;56.920;14.804;2023-05-10T14:50:29;5.22;;;1.77;;
18838;SDS011;9548;56.920;14.804;2023-05-10T14:52:56;2.72;;;1.63;;
18838;SDS011;9548;56.920;14.804;2023-05-10T14:55:24;4.35;;;1.90;;
18838;SDS011;9548;56.920;14.804;2023-05-10T14:57:50;4.07;;;1.80;;